createdAt,value
2022-09-02T00:02:10.452Z,42.96
2022-09-02T00:07:12.011Z,42.93
2022-09-02T00:12:13.501Z,42.80
2022-09-02T00:17:14.873Z,43.11
2022-09-02T00:22:16.182Z,42.81
2022-09-02T00:27:17.515Z,42.95
2022-09-02T00:32:19.481Z,42.62
2022-09-02T00:37:20.908Z,42.92
2022-09-02T00:42:22.927Z,43.00
2022-09-02T00:47:24.362Z,43.41
2022-09-02T00:52:31.894Z,43.08
2022-09-02T00:57:38.374Z,43.07
2022-09-02T01:02:42.054Z,43.25
2022-09-02T01:07:44.793Z,43.53
2022-09-02T01:12:47.312Z,43.55
2022-09-02T01:17:51.154Z,43.79
2022-09-02T01:22:53.481Z,43.99
2022-09-02T01:28:05.203Z,43.72
2022-09-02T01:33:06.727Z,43.93
2022-09-02T01:38:08.396Z,43.75
2022-09-02T01:43:14.038Z,43.50
2022-09-02T01:48:21.465Z,43.80
2022-09-02T01:53:23.333Z,43.95
2022-09-02T01:58:24.829Z,44.34
2022-09-02T02:03:26.183Z,43.65
2022-09-02T02:08:27.763Z,44.29
2022-09-02T02:13:29.135Z,44.14
2022-09-02T02:18:30.929Z,43.98
2022-09-02T02:23:32.365Z,44.04
2022-09-02T02:28:36.952Z,44.29
2022-09-02T02:33:38.431Z,44.39
2022-09-02T02:38:41.283Z,44.37
2022-09-02T02:43:43.001Z,44.72
2022-09-02T02:48:44.442Z,44.43
2022-09-02T02:53:45.790Z,44.45
2022-09-02T02:58:47.157Z,44.27
2022-09-02T03:03:48.565Z,44.36
2022-09-02T03:08:51.123Z,44.25
2022-09-02T03:13:52.522Z,44.58
2022-09-02T03:18:54.032Z,44.49
2022-09-02T03:23:55.996Z,44.50
2022-09-02T03:28:59.606Z,44.71
2022-09-02T03:34:02.650Z,45.11
2022-09-02T03:39:05.576Z,44.76
2022-09-02T03:44:11.568Z,45.07
2022-09-02T03:49:13.120Z,45.35
2022-09-02T03:54:14.746Z,45.38
2022-09-02T03:59:16.737Z,45.62
2022-09-02T04:04:22.738Z,45.96
2022-09-02T04:09:24.654Z,45.66
2022-09-02T04:14:27.451Z,45.90
2022-09-02T04:19:28.853Z,45.64
2022-09-02T04:24:31.103Z,45.40
2022-09-02T04:29:32.614Z,45.63
2022-09-02T04:34:34.347Z,45.35
2022-09-02T04:39:35.679Z,45.24
2022-09-02T04:44:37.018Z,45.47
2022-09-02T04:49:38.430Z,45.77
2022-09-02T04:54:39.741Z,45.54
2022-09-02T04:59:41.101Z,45.68
2022-09-02T05:04:42.454Z,45.61
2022-09-02T05:09:44.373Z,45.70
2022-09-02T05:14:48.959Z,45.59
2022-09-02T05:19:50.414Z,45.62
2022-09-02T05:24:51.793Z,45.69
2022-09-02T05:29:58.954Z,45.67
2022-09-02T05:35:00.258Z,46.07
2022-09-02T05:40:01.749Z,46.09
2022-09-02T05:45:04.405Z,45.83
2022-09-02T05:50:07.773Z,45.61
2022-09-02T05:55:09.914Z,45.86
2022-09-02T06:00:17.787Z,45.66
2022-09-02T06:05:19.718Z,45.29
2022-09-02T06:10:21.173Z,45.66
2022-09-02T06:15:22.595Z,44.98
2022-09-02T06:20:23.963Z,44.49
2022-09-02T06:25:25.290Z,43.91
2022-09-02T06:30:26.653Z,44.81
2022-09-02T06:35:28.033Z,44.15
2022-09-02T06:40:29.527Z,43.40
2022-09-02T06:45:31.585Z,42.82
2022-09-02T06:50:33.136Z,42.46
2022-09-02T06:55:36.995Z,42.80
2022-09-02T07:00:39.807Z,41.81
2022-09-02T07:05:41.205Z,42.50
2022-09-02T07:10:42.566Z,42.02
2022-09-02T07:15:43.930Z,41.32
2022-09-02T07:20:47.337Z,41.25
2022-09-02T07:25:48.698Z,41.74
2022-09-02T07:30:58.965Z,41.03
2022-09-02T07:36:01.241Z,40.43
2022-09-02T07:41:03.765Z,40.13
2022-09-02T07:46:05.539Z,40.47
2022-09-02T07:51:08.104Z,39.92
2022-09-02T07:56:09.939Z,38.93
2022-09-02T08:01:12.793Z,39.34
2022-09-02T08:06:14.366Z,39.50
2022-09-02T08:11:15.763Z,39.08
2022-09-02T08:16:17.247Z,38.38
2022-09-02T08:21:18.894Z,39.03
2022-09-02T08:26:21.271Z,37.48
2022-09-02T08:31:23.003Z,36.90
2022-09-02T08:36:24.544Z,36.41
2022-09-02T08:41:33.734Z,36.03
2022-09-02T08:46:35.923Z,36.00
2022-09-02T08:51:48.138Z,35.35
2022-09-02T08:56:55.888Z,34.88
2022-09-02T09:02:17.905Z,34.74
2022-09-02T09:12:55.841Z,32.92
2022-09-02T09:18:08.193Z,31.99
2022-09-02T09:23:22.124Z,32.04
2022-09-02T09:28:23.633Z,31.23
2022-09-02T09:33:25.817Z,30.86
2022-09-02T09:38:36.008Z,31.07
2022-09-02T09:43:37.473Z,29.14
2022-09-02T09:48:49.569Z,27.87
2022-09-02T09:53:51.440Z,27.32
2022-09-02T09:58:53.425Z,25.80
2022-09-02T10:04:20.747Z,26.16
2022-09-02T10:09:31.006Z,25.01
2022-09-02T10:14:45.882Z,25.56
2022-09-02T10:19:47.258Z,22.50
2022-09-02T10:25:00.151Z,18.34
2022-09-02T10:30:13.537Z,20.71
2022-09-02T10:35:24.924Z,22.65
2022-09-02T10:40:37.378Z,22.04
2022-09-02T10:45:46.507Z,20.59
2022-09-02T10:51:15.521Z,15.89
2022-09-02T10:56:26.400Z,15.45
2022-09-02T11:01:49.220Z,17.93
2022-09-02T11:07:02.396Z,19.41
2022-09-02T11:12:04.452Z,16.53
2022-09-02T11:17:23.338Z,12.65
2022-09-02T11:22:39.973Z,11.96
2022-09-02T11:27:47.272Z,11.41
2022-09-02T11:33:21.677Z,12.97
2022-09-02T11:38:36.538Z,12.46
2022-09-02T11:43:47.492Z,16.31
2022-09-02T11:49:10.319Z,12.48
2022-09-02T11:54:16.299Z,10.75
2022-09-02T11:59:52.271Z,9.86
2022-09-02T12:05:29.853Z,10.33
2022-09-02T12:10:43.681Z,14.31
2022-09-02T12:15:45.432Z,11.96
2022-09-02T12:20:51.129Z,10.48
2022-09-02T12:26:01.643Z,11.54
2022-09-02T12:31:07.525Z,11.17
2022-09-02T12:36:29.556Z,12.87
2022-09-02T12:41:33.983Z,16.34
2022-09-02T12:46:44.403Z,18.90
2022-09-02T12:52:04.948Z,19.97
2022-09-02T12:57:07.963Z,18.79
2022-09-02T13:02:51.931Z,19.15
2022-09-02T13:08:32.770Z,20.01
2022-09-02T13:14:05.184Z,19.45
2022-09-02T13:19:10.883Z,20.22
2022-09-02T13:24:36.124Z,19.60
2022-09-02T13:30:06.419Z,19.98
2022-09-02T13:35:20.268Z,19.77
2022-09-02T13:40:33.671Z,19.74
2022-09-02T13:45:35.777Z,20.71
2022-09-02T13:50:42.052Z,21.68
2022-09-02T13:55:49.800Z,20.96
2022-09-02T14:00:51.254Z,22.06
2022-09-02T14:05:56.722Z,22.08
2022-09-02T14:10:58.297Z,22.36
2022-09-02T14:16:23.931Z,22.74
2022-09-02T14:21:25.270Z,23.08
2022-09-02T14:26:33.218Z,22.64
2022-09-02T14:31:35.256Z,22.90
2022-09-02T14:36:38.816Z,23.09
2022-09-02T14:41:58.469Z,23.16
2022-09-02T14:47:13.010Z,22.95
2022-09-02T14:52:27.806Z,23.39
2022-09-02T14:57:35.405Z,23.83
2022-09-02T15:02:40.509Z,23.21
2022-09-02T15:07:42.440Z,23.46
2022-09-02T15:12:49.733Z,23.61
2022-09-02T15:17:51.121Z,23.85
2022-09-02T15:22:53.572Z,23.95
2022-09-02T15:27:54.892Z,23.88
2022-09-02T15:32:56.176Z,24.41
2022-09-02T15:37:57.481Z,24.31
2022-09-02T15:42:59.976Z,24.62
2022-09-02T15:48:01.308Z,24.95
2022-09-02T15:53:02.713Z,24.62
2022-09-02T15:58:04.137Z,24.93
2022-09-02T16:03:05.528Z,24.82
2022-09-02T16:08:09.062Z,24.99
2022-09-02T16:13:10.436Z,25.32
2022-09-02T16:18:17.615Z,25.47
2022-09-02T16:23:18.994Z,25.48
2022-09-02T16:28:20.460Z,25.33
2022-09-02T16:33:21.798Z,25.35
2022-09-02T16:38:23.195Z,25.63
2022-09-02T16:43:26.419Z,25.73
2022-09-02T16:48:32.189Z,25.67
2022-09-02T16:53:33.638Z,25.31
2022-09-02T16:58:37.072Z,25.66
2022-09-02T17:03:39.784Z,25.88
2022-09-02T17:08:44.422Z,25.90
2022-09-02T17:13:57.194Z,26.03
2022-09-02T17:19:02.334Z,26.08
2022-09-02T17:24:09.830Z,26.31
2022-09-02T17:29:37.834Z,26.00
2022-09-02T17:34:37.598Z,26.33
2022-09-02T17:39:39.011Z,26.54
2022-09-02T17:44:40.495Z,26.87
2022-09-02T17:49:44.181Z,26.83
2022-09-02T17:54:49.005Z,26.94
2022-09-02T18:00:10.128Z,27.00
2022-09-02T18:05:49.960Z,27.40
2022-09-02T18:10:58.446Z,28.15
2022-09-02T18:16:28.366Z,28.02
2022-09-02T18:21:47.856Z,28.11
2022-09-02T18:27:02.467Z,28.72
2022-09-02T18:32:32.095Z,28.63
2022-09-02T18:38:06.542Z,28.95
2022-09-02T18:43:23.808Z,29.78
2022-09-02T18:48:31.269Z,29.46
2022-09-02T18:53:39.796Z,29.39
2022-09-02T18:58:50.754Z,30.19
2022-09-02T19:03:52.516Z,30.08
2022-09-02T19:09:01.036Z,30.59
2022-09-02T19:14:09.190Z,30.33
2022-09-02T19:19:10.554Z,31.06
2022-09-02T19:24:14.949Z,31.57
2022-09-02T19:29:17.482Z,31.17
2022-09-02T19:34:19.844Z,31.77
2022-09-02T19:39:21.490Z,31.87
2022-09-02T19:44:22.819Z,31.90
2022-09-02T19:49:24.715Z,31.72
2022-09-02T19:54:26.437Z,32.40
2022-09-02T19:59:27.870Z,32.93
2022-09-02T20:04:29.927Z,32.77
2022-09-02T20:09:31.608Z,33.07
2022-09-02T20:14:36.373Z,33.37
2022-09-02T20:19:37.739Z,32.86
2022-09-02T20:24:45.106Z,33.53
2022-09-02T20:30:05.003Z,33.22
2022-09-02T20:35:24.446Z,33.30
2022-09-02T20:40:58.145Z,33.81
2022-09-02T20:46:06.103Z,34.38
2022-09-02T20:51:12.570Z,33.91
2022-09-02T20:56:28.790Z,34.39
2022-09-02T21:01:34.851Z,34.22
2022-09-02T21:06:41.769Z,34.71
2022-09-02T21:11:52.044Z,34.65
2022-09-02T21:17:05.405Z,34.92
2022-09-02T21:22:19.272Z,35.38
2022-09-02T21:27:25.406Z,35.57
2022-09-02T21:32:51.278Z,34.96
2022-09-02T21:38:06.906Z,35.68
2022-09-02T21:43:17.620Z,36.49
2022-09-02T21:48:25.064Z,35.69
2022-09-02T21:54:04.090Z,36.16
2022-09-02T21:59:26.947Z,35.92
2022-09-02T22:04:31.604Z,36.43
2022-09-02T22:09:33.095Z,36.38
2022-09-02T22:15:11.966Z,36.83
2022-09-02T22:20:18.469Z,36.84
2022-09-02T22:25:21.728Z,36.57
2022-09-02T22:30:23.190Z,36.43
2022-09-02T22:35:41.172Z,36.89
2022-09-02T22:40:50.269Z,37.22
2022-09-02T22:46:17.828Z,37.59
2022-09-02T22:51:48.399Z,37.71
2022-09-02T22:56:58.840Z,37.54
2022-09-02T23:02:13.837Z,37.27
2022-09-02T23:07:15.165Z,37.70
2022-09-02T23:12:28.538Z,37.40
2022-09-02T23:17:38.965Z,37.80
2022-09-02T23:23:05.782Z,38.06
2022-09-02T23:28:16.487Z,37.82
2022-09-02T23:34:01.056Z,38.07
2022-09-02T23:39:18.969Z,37.75
2022-09-02T23:44:20.853Z,38.45
2022-09-02T23:49:38.796Z,38.30
2022-09-02T23:55:10.829Z,38.52
